Time;durP1;ratioP1;P1;durP2;ratioP2;P2;SDS_P1;SDS_P2;PMS_P1;PMS_P2;Temp;Humidity;BMP_temperature;BMP_pressure;BME280_temperature;BME280_humidity;BME280_pressure;Samples;Min_cycle;Max_cycle;Signal;HPM_P1;HPM_P2
2022/04/05 00:02:16;;;;;;;15.68;9.35;;;;;;;;;;5012604;28;20057;-39
2022/04/05 00:04:41;;;;;;;17.67;9.98;;;;;;;;;;5012613;28;20037;-38
2022/04/05 00:07:07;;;;;;;15.25;9.00;;;;;;;;;;5012841;28;20026;-41
2022/04/05 00:09:33;;;;;;;15.70;8.50;;;;;;;;;;5012563;28;20378;-38
2022/04/05 00:11:58;;;;;;;8.05;5.65;;;;;;;;;;5012862;28;20034;-39
2022/04/05 00:14:24;;;;;;;17.95;9.88;;;;;;;;;;5012569;28;20470;-38
2022/04/05 00:16:49;;;;;;;10.80;6.97;;;;;;;;;;5012629;28;20030;-38
2022/04/05 00:19:15;;;;;;;14.88;9.30;;;;;;;;;;5012481;28;20041;-39
2022/04/05 00:21:41;;;;;;;14.93;7.60;;;;;;;;;;5012414;28;20026;-38
2022/04/05 00:24:07;;;;;;;18.95;11.05;;;;;;;;;;5012694;28;20034;-38
2022/04/05 00:26:32;;;;;;;12.93;9.23;;;;;;;;;;5012674;28;20088;-38
2022/04/05 00:28:58;;;;;;;10.90;6.53;;;;;;;;;;5012697;28;20030;-41
2022/04/05 00:31:23;;;;;;;19.90;10.48;;;;;;;;;;5012620;28;20387;-40
2022/04/05 00:33:49;;;;;;;15.02;7.25;;;;;;;;;;5012393;28;20022;-40
2022/04/05 00:36:14;;;;;;;14.95;9.57;;;;;;;;;;5012738;28;20034;-40
2022/04/05 00:38:40;;;;;;;17.33;10.07;;;;;;;;;;5016519;28;20449;-41
2022/04/05 00:41:06;;;;;;;18.23;10.05;;;;;;;;;;5016116;28;20105;-40
2022/04/05 00:43:32;;;;;;;21.52;11.60;;;;;;;;;;5016106;28;20116;-40
2022/04/05 00:45:57;;;;;;;17.40;10.00;;;;;;;;;;5016119;28;20049;-40
2022/04/05 00:48:48;;;;;;;20.02;10.98;;;;;;;;;;5016323;28;20018;-40
2022/04/05 00:51:15;;;;;;;19.73;11.13;;;;;;;;;;5009963;28;20491;-40
2022/04/05 00:53:47;;;;;;;17.90;10.80;;;;;;;;;;5015913;28;20046;-39
2022/04/05 00:56:17;;;;;;;16.95;10.00;;;;;;;;;;5015935;28;20108;-38
2022/04/05 00:58:53;;;;;;;23.88;11.40;;;;;;;;;;5015739;28;20056;-40
2022/04/05 01:01:20;;;;;;;24.42;11.60;;;;;;;;;;5016071;28;20040;-40
2022/04/05 01:03:48;;;;;;;19.90;11.05;;;;;;;;;;5015716;28;20037;-40
2022/04/05 01:06:26;;;;;;;18.30;10.20;;;;;;;;;;5015992;28;20057;-42
2022/04/05 01:08:52;;;;;;;19.45;10.73;;;;;;;;;;5015698;28;20630;-40
2022/04/05 01:11:18;;;;;;;18.95;10.52;;;;;;;;;;5015565;28;20036;-40
2022/04/05 01:13:43;;;;;;;23.38;11.05;;;;;;;;;;5015485;28;20026;-40
2022/04/05 01:16:12;;;;;;;20.25;11.80;;;;;;;;;;5015760;28;20030;-40
2022/04/05 01:18:38;;;;;;;20.77;10.48;;;;;;;;;;5015756;28;20030;-40
2022/04/05 01:21:04;;;;;;;17.45;10.32;;;;;;;;;;5015663;28;20032;-39
2022/04/05 01:23:30;;;;;;;14.20;9.52;;;;;;;;;;5015363;28;20423;-40
2022/04/05 01:25:56;;;;;;;22.13;10.77;;;;;;;;;;5015643;28;20241;-40
2022/04/05 01:28:24;;;;;;;10.60;6.90;;;;;;;;;;5015260;28;20497;-39
2022/04/05 01:30:51;;;;;;;18.00;9.98;;;;;;;;;;5015297;28;20083;-39
2022/04/05 01:33:17;;;;;;;19.83;9.57;;;;;;;;;;5015340;28;20038;-40
2022/04/05 01:35:42;;;;;;;14.38;7.50;;;;;;;;;;5015279;28;20037;-39
2022/04/05 01:38:09;;;;;;;20.42;11.25;;;;;;;;;;5015143;28;20026;-40
2022/04/05 01:40:35;;;;;;;17.92;10.32;;;;;;;;;;5015314;28;20074;-39
2022/04/05 01:43:02;;;;;;;16.88;10.07;;;;;;;;;;5015053;28;20030;-39
2022/04/05 01:45:28;;;;;;;14.85;7.60;;;;;;;;;;5014969;28;20474;-41
2022/04/05 01:47:53;;;;;;;18.73;6.60;;;;;;;;;;5014578;28;20037;-40
2022/04/05 01:50:19;;;;;;;13.18;7.03;;;;;;;;;;5014633;28;20061;-39
2022/04/05 01:52:44;;;;;;;18.13;9.00;;;;;;;;;;5014653;28;20045;-40
2022/04/05 01:55:10;;;;;;;22.55;10.10;;;;;;;;;;5014748;28;20061;-39
2022/04/05 01:57:35;;;;;;;20.38;6.70;;;;;;;;;;5014999;28;20022;-39
2022/04/05 02:00:03;;;;;;;14.95;8.77;;;;;;;;;;5015030;28;20641;-40
2022/04/05 02:02:28;;;;;;;15.13;7.97;;;;;;;;;;5014931;28;20049;-40
2022/04/05 02:04:54;;;;;;;15.70;9.45;;;;;;;;;;5014916;28;20064;-39
2022/04/05 02:07:20;;;;;;;22.35;10.27;;;;;;;;;;5014789;28;20455;-39
2022/04/05 02:09:48;;;;;;;17.40;9.30;;;;;;;;;;5014800;28;20030;-39
2022/04/05 02:12:17;;;;;;;18.42;10.32;;;;;;;;;;5014828;28;20026;-39
2022/04/05 02:14:43;;;;;;;14.30;9.13;;;;;;;;;;5014431;28;20022;-40
2022/04/05 02:17:09;;;;;;;18.48;9.43;;;;;;;;;;5014626;28;20033;-39
2022/04/05 02:19:36;;;;;;;16.63;9.18;;;;;;;;;;5014245;28;20033;-39
2022/04/05 02:22:02;;;;;;;16.75;9.07;;;;;;;;;;5014606;28;20332;-40
2022/04/05 02:24:28;;;;;;;16.83;9.63;;;;;;;;;;5014242;28;20033;-41
2022/04/05 02:26:54;;;;;;;16.92;10.15;;;;;;;;;;5014454;28;20018;-39
2022/04/05 02:29:19;;;;;;;19.75;10.65;;;;;;;;;;5014399;28;20028;-40
2022/04/05 02:31:45;;;;;;;14.98;9.50;;;;;;;;;;5014393;28;20504;-40
2022/04/05 02:34:11;;;;;;;21.38;12.02;;;;;;;;;;5014041;28;20589;-40
2022/04/05 02:36:37;;;;;;;16.13;9.98;;;;;;;;;;5014232;28;20038;-40
2022/04/05 02:39:05;;;;;;;16.10;9.20;;;;;;;;;;5013847;28;20053;-40
2022/04/05 02:41:30;;;;;;;22.50;10.23;;;;;;;;;;5014444;28;20021;-40
2022/04/05 02:43:56;;;;;;;16.83;10.68;;;;;;;;;;5013856;28;20498;-40
2022/04/05 02:46:21;;;;;;;15.63;8.60;;;;;;;;;;5013967;28;20037;-40
2022/04/05 02:48:48;;;;;;;20.35;9.38;;;;;;;;;;5013823;28;20422;-40
2022/04/05 02:51:15;;;;;;;16.70;10.23;;;;;;;;;;5013742;28;20049;-40
2022/04/05 02:53:41;;;;;;;14.52;9.68;;;;;;;;;;5013945;28;20473;-40
2022/04/05 02:56:07;;;;;;;18.00;10.73;;;;;;;;;;5013590;28;20037;-40
2022/04/05 02:58:36;;;;;;;16.02;8.85;;;;;;;;;;5013589;28;20378;-40
2022/04/05 03:01:03;;;;;;;13.43;8.68;;;;;;;;;;5013395;28;20497;-39
2022/04/05 03:03:28;;;;;;;9.23;5.68;;;;;;;;;;5013745;28;20105;-39
2022/04/05 03:05:54;;;;;;;14.70;8.20;;;;;;;;;;5013413;28;20501;-39
2022/04/05 03:08:19;;;;;;;10.48;7.15;;;;;;;;;;5013447;28;20026;-39
2022/04/05 03:10:45;;;;;;;7.57;5.95;;;;;;;;;;5013424;28;20113;-40
2022/04/05 03:13:11;;;;;;;19.58;10.70;;;;;;;;;;5013352;28;20026;-39
2022/04/05 03:15:37;;;;;;;14.98;8.50;;;;;;;;;;5013402;28;20033;-39
2022/04/05 03:18:03;;;;;;;8.95;6.25;;;;;;;;;;5013284;28;20092;-40
2022/04/05 03:20:28;;;;;;;13.52;8.25;;;;;;;;;;4995527;28;20057;-40
2022/04/05 03:22:55;;;;;;;14.23;7.90;;;;;;;;;;5013247;28;20037;-39
2022/04/05 03:25:22;;;;;;;13.40;6.85;;;;;;;;;;5013355;28;20022;-39
2022/04/05 03:27:48;;;;;;;13.88;8.05;;;;;;;;;;5013343;28;20028;-39
2022/04/05 03:30:15;;;;;;;15.40;7.97;;;;;;;;;;5013344;28;20112;-39
2022/04/05 03:32:40;;;;;;;19.35;9.05;;;;;;;;;;5013288;28;20063;-39
2022/04/05 03:35:07;;;;;;;14.00;8.07;;;;;;;;;;5012974;28;20033;-39
2022/04/05 03:37:32;;;;;;;19.55;8.00;;;;;;;;;;5012937;28;20033;-39
2022/04/05 03:39:59;;;;;;;12.73;7.78;;;;;;;;;;5013448;28;20041;-39
2022/04/05 03:42:25;;;;;;;12.20;8.13;;;;;;;;;;5013165;28;20021;-40
2022/04/05 03:44:50;;;;;;;11.82;7.45;;;;;;;;;;4995313;28;20060;-39
2022/04/05 03:47:16;;;;;;;14.13;7.30;;;;;;;;;;5012830;28;20041;-40
2022/04/05 03:49:41;;;;;;;19.20;9.68;;;;;;;;;;5013070;28;20033;-40
2022/04/05 03:52:07;;;;;;;11.15;6.10;;;;;;;;;;5012518;28;20446;-40
2022/04/05 03:54:32;;;;;;;12.45;6.88;;;;;;;;;;5013000;28;20110;-39
2022/04/05 03:56:58;;;;;;;15.50;8.55;;;;;;;;;;5012921;28;20034;-39
2022/04/05 03:59:24;;;;;;;8.52;5.28;;;;;;;;;;5012607;28;20057;-39
2022/04/05 04:01:49;;;;;;;13.45;7.68;;;;;;;;;;5012898;28;20026;-39
2022/04/05 04:04:15;;;;;;;10.23;7.57;;;;;;;;;;5012901;28;20172;-39
2022/04/05 04:06:40;;;;;;;12.68;7.22;;;;;;;;;;5012352;28;20497;-39
2022/04/05 04:09:06;;;;;;;12.98;7.13;;;;;;;;;;5012500;28;20042;-39
2022/04/05 04:11:31;;;;;;;15.45;9.25;;;;;;;;;;5012169;28;20030;-39
2022/04/05 04:13:58;;;;;;;13.68;8.60;;;;;;;;;;5012658;28;20030;-39
2022/04/05 04:16:24;;;;;;;13.98;8.15;;;;;;;;;;5012391;28;20076;-41
2022/04/05 04:18:49;;;;;;;16.38;8.80;;;;;;;;;;5012401;28;20478;-39
2022/04/05 04:21:15;;;;;;;18.65;9.63;;;;;;;;;;5012388;28;20029;-40
2022/04/05 04:23:40;;;;;;;16.45;9.30;;;;;;;;;;5012234;28;20033;-39
2022/04/05 04:26:06;;;;;;;21.02;9.57;;;;;;;;;;5012606;28;20034;-40
2022/04/05 04:28:32;;;;;;;14.65;8.40;;;;;;;;;;5012603;28;20033;-40
2022/04/05 04:31:00;;;;;;;11.68;8.20;;;;;;;;;;5012597;28;20489;-40
2022/04/05 04:33:26;;;;;;;15.95;8.43;;;;;;;;;;5012550;28;20025;-39
2022/04/05 04:35:53;;;;;;;13.38;8.75;;;;;;;;;;5012533;28;20030;-40
2022/04/05 04:38:18;;;;;;;16.45;9.82;;;;;;;;;;5012195;28;20529;-40
2022/04/05 04:40:48;;;;;;;15.98;9.98;;;;;;;;;;5012495;28;20113;-40
2022/04/05 04:43:15;;;;;;;17.17;9.67;;;;;;;;;;5012350;28;20022;-40
2022/04/05 04:45:41;;;;;;;14.90;10.05;;;;;;;;;;5012145;28;20607;-40
2022/04/05 04:48:06;;;;;;;12.43;7.82;;;;;;;;;;5012470;28;20038;-39
2022/04/05 04:50:32;;;;;;;11.90;7.68;;;;;;;;;;5012107;28;20077;-39
2022/04/05 04:53:01;;;;;;;10.20;6.68;;;;;;;;;;5012003;28;20085;-39
2022/04/05 04:55:27;;;;;;;18.08;9.65;;;;;;;;;;5012006;28;20506;-40
2022/04/05 04:57:53;;;;;;;18.75;9.23;;;;;;;;;;5012092;28;20108;-39
2022/04/05 05:00:19;;;;;;;15.77;9.80;;;;;;;;;;5012068;28;20451;-40
2022/04/05 05:02:49;;;;;;;19.08;9.80;;;;;;;;;;5011968;28;20021;-39
2022/04/05 05:05:18;;;;;;;14.88;9.05;;;;;;;;;;5011974;28;20030;-40
2022/04/05 05:07:47;;;;;;;20.05;11.70;;;;;;;;;;5012294;28;20034;-40
2022/04/05 05:10:14;;;;;;;18.63;9.80;;;;;;;;;;5011904;28;20069;-40
2022/04/05 05:12:42;;;;;;;13.73;7.80;;;;;;;;;;5012220;28;20129;-41
2022/04/05 05:15:10;;;;;;;16.25;9.35;;;;;;;;;;5011888;28;20022;-40
2022/04/05 05:17:36;;;;;;;16.42;8.73;;;;;;;;;;5012121;28;20030;-40
2022/04/05 05:20:03;;;;;;;15.48;9.35;;;;;;;;;;5012147;28;20087;-40
2022/04/05 05:22:29;;;;;;;9.63;6.35;;;;;;;;;;5011802;28;20056;-41
2022/04/05 05:24:54;;;;;;;17.40;9.02;;;;;;;;;;5014731;28;20022;-40
2022/04/05 05:27:20;;;;;;;10.43;6.15;;;;;;;;;;5015261;28;20033;-41
2022/04/05 05:29:45;;;;;;;11.82;7.20;;;;;;;;;;5015499;28;20038;-38
2022/04/05 05:32:11;;;;;;;14.13;8.43;;;;;;;;;;5015239;28;20026;-38
2022/04/05 05:34:36;;;;;;;12.68;8.70;;;;;;;;;;5015417;28;20034;-38
2022/04/05 05:37:03;;;;;;;17.05;8.85;;;;;;;;;;5014121;28;20038;-39
2022/04/05 05:39:28;;;;;;;17.38;9.45;;;;;;;;;;5013544;28;20121;-37
2022/04/05 05:41:54;;;;;;;12.15;8.23;;;;;;;;;;5013493;28;20112;-38
2022/04/05 05:44:20;;;;;;;13.70;6.88;;;;;;;;;;5014927;28;20030;-39
2022/04/05 05:46:46;;;;;;;14.25;8.45;;;;;;;;;;5015183;28;20029;-38
2022/04/05 05:49:12;;;;;;;20.58;7.35;;;;;;;;;;5014913;28;20425;-38
2022/04/05 05:51:37;;;;;;;14.77;8.98;;;;;;;;;;5014471;28;20048;-38
2022/04/05 05:54:04;;;;;;;14.95;9.93;;;;;;;;;;5013364;28;20084;-39
2022/04/05 05:56:30;;;;;;;13.20;8.27;;;;;;;;;;5013985;28;20119;-38
2022/04/05 05:58:55;;;;;;;11.20;7.72;;;;;;;;;;5014700;28;20478;-38
2022/04/05 06:01:23;;;;;;;12.95;8.25;;;;;;;;;;5014913;28;20025;-38
2022/04/05 06:03:48;;;;;;;14.32;7.85;;;;;;;;;;5014829;28;20022;-38
2022/04/05 06:06:14;;;;;;;10.18;6.30;;;;;;;;;;5014848;28;20359;-38
2022/04/05 06:08:40;;;;;;;10.30;6.72;;;;;;;;;;5014615;28;20458;-39
2022/04/05 06:11:07;;;;;;;12.52;6.55;;;;;;;;;;5014447;28;20538;-38
2022/04/05 06:13:33;;;;;;;9.77;6.38;;;;;;;;;;5014610;28;20113;-39
2022/04/05 06:15:59;;;;;;;8.02;6.07;;;;;;;;;;5014263;28;20029;-38
2022/04/05 06:18:24;;;;;;;10.75;6.13;;;;;;;;;;5014643;28;20026;-40
2022/04/05 06:20:50;;;;;;;13.25;6.78;;;;;;;;;;5014175;28;20459;-39
2022/04/05 06:23:15;;;;;;;10.25;6.38;;;;;;;;;;5014505;28;20061;-40
2022/04/05 06:25:41;;;;;;;11.70;6.70;;;;;;;;;;5014137;28;20034;-37
2022/04/05 06:28:09;;;;;;;9.18;5.95;;;;;;;;;;5014181;28;20083;-40
2022/04/05 06:30:36;;;;;;;11.52;5.20;;;;;;;;;;5014312;28;20044;-38
2022/04/05 06:33:05;;;;;;;8.02;5.57;;;;;;;;;;5014402;28;20023;-38
2022/04/05 06:35:30;;;;;;;6.93;5.20;;;;;;;;;;5013514;28;20471;-38
2022/04/05 06:37:56;;;;;;;6.75;5.15;;;;;;;;;;5013930;28;20117;-39
2022/04/05 06:40:21;;;;;;;6.07;4.70;;;;;;;;;;5014253;28;20037;-39
2022/04/05 06:42:47;;;;;;;7.75;4.35;;;;;;;;;;5014125;28;20056;-38
2022/04/05 06:45:14;;;;;;;7.47;4.95;;;;;;;;;;4995788;28;20056;-39
2022/04/05 06:47:41;;;;;;;7.97;4.75;;;;;;;;;;5013975;28;20034;-38
2022/04/05 06:50:08;;;;;;;4.88;4.38;;;;;;;;;;5013945;28;20057;-39
2022/04/05 06:52:38;;;;;;;7.45;4.40;;;;;;;;;;5013537;28;20088;-38
2022/04/05 06:55:07;;;;;;;7.60;4.35;;;;;;;;;;5013789;28;20417;-38
2022/04/05 06:57:33;;;;;;;7.15;4.30;;;;;;;;;;5013636;28;20037;-39
2022/04/05 06:59:58;;;;;;;5.18;4.68;;;;;;;;;;5013786;28;20030;-39
2022/04/05 07:02:24;;;;;;;6.28;4.32;;;;;;;;;;5013573;28;20037;-38
2022/04/05 07:04:50;;;;;;;6.45;4.70;;;;;;;;;;5013789;28;20022;-39
2022/04/05 07:07:15;;;;;;;5.95;4.30;;;;;;;;;;5013396;28;20477;-39
2022/04/05 07:09:40;;;;;;;5.20;4.43;;;;;;;;;;5013366;28;20057;-38
2022/04/05 07:12:09;;;;;;;5.72;4.75;;;;;;;;;;5013437;28;20088;-38
2022/04/05 07:14:35;;;;;;;6.60;4.88;;;;;;;;;;5013658;28;20117;-38
2022/04/05 07:17:01;;;;;;;4.63;3.97;;;;;;;;;;5013225;28;20104;-39
2022/04/05 07:19:26;;;;;;;9.38;5.05;;;;;;;;;;5013534;28;20037;-42
2022/04/05 07:21:52;;;;;;;7.32;4.60;;;;;;;;;;5013069;28;20425;-39
2022/04/05 07:24:18;;;;;;;7.18;4.40;;;;;;;;;;5012772;28;20125;-39
2022/04/05 07:26:44;;;;;;;6.97;4.25;;;;;;;;;;5013140;28;20129;-39
2022/04/05 07:29:10;;;;;;;4.90;4.43;;;;;;;;;;5013007;28;20052;-39
2022/04/05 07:31:36;;;;;;;7.18;4.90;;;;;;;;;;4995734;28;20038;-40
2022/04/05 07:34:03;;;;;;;6.80;4.70;;;;;;;;;;5012985;28;20093;-39
2022/04/05 07:36:29;;;;;;;5.43;4.55;;;;;;;;;;5012958;28;20042;-39
2022/04/05 07:38:55;;;;;;;7.50;5.20;;;;;;;;;;5012895;28;20060;-40
2022/04/05 07:41:21;;;;;;;7.28;5.68;;;;;;;;;;5012969;28;20049;-39
2022/04/05 07:43:46;;;;;;;7.75;4.90;;;;;;;;;;5012343;28;20030;-40
2022/04/05 07:46:12;;;;;;;8.10;4.60;;;;;;;;;;5012095;28;20064;-38
2022/04/05 07:48:39;;;;;;;8.38;5.65;;;;;;;;;;5013017;28;20030;-39
2022/04/05 07:51:05;;;;;;;7.95;5.10;;;;;;;;;;5012432;28;20091;-39
2022/04/05 07:53:31;;;;;;;6.15;5.13;;;;;;;;;;5012111;28;20045;-39
2022/04/05 07:55:56;;;;;;;5.28;4.78;;;;;;;;;;5012156;28;20030;-40
2022/04/05 07:58:22;;;;;;;6.43;4.93;;;;;;;;;;5012115;28;20137;-39
2022/04/05 08:00:48;;;;;;;5.95;4.70;;;;;;;;;;5012739;28;20036;-39
2022/04/05 08:03:13;;;;;;;9.38;5.72;;;;;;;;;;5012471;28;20413;-39
2022/04/05 08:05:41;;;;;;;6.90;5.13;;;;;;;;;;5012607;28;20499;-39
2022/04/05 08:08:07;;;;;;;6.47;5.75;;;;;;;;;;5012591;28;20046;-38
2022/04/05 08:10:33;;;;;;;7.78;5.18;;;;;;;;;;5012528;28;20030;-39
2022/04/05 08:13:00;;;;;;;5.78;4.88;;;;;;;;;;5012485;28;20030;-39
2022/04/05 08:15:26;;;;;;;8.55;5.13;;;;;;;;;;5011695;28;20050;-38
2022/04/05 08:17:52;;;;;;;5.70;5.05;;;;;;;;;;5012273;28;20057;-40
2022/04/05 08:20:19;;;;;;;8.07;4.75;;;;;;;;;;5012254;28;20033;-39
2022/04/05 08:22:45;;;;;;;6.82;5.55;;;;;;;;;;5012433;28;20029;-39
2022/04/05 08:25:16;;;;;;;6.15;5.20;;;;;;;;;;5012196;28;20411;-39
2022/04/05 08:27:43;;;;;;;6.70;5.30;;;;;;;;;;5011959;28;20073;-39
2022/04/05 08:30:10;;;;;;;7.07;5.47;;;;;;;;;;5011895;28;20026;-39
2022/04/05 08:32:42;;;;;;;6.13;5.13;;;;;;;;;;5012112;28;20053;-39
2022/04/05 08:35:12;;;;;;;7.20;4.93;;;;;;;;;;5012300;28;20538;-39
2022/04/05 08:37:39;;;;;;;6.22;5.15;;;;;;;;;;5012445;28;20382;-38
2022/04/05 08:40:07;;;;;;;5.78;5.18;;;;;;;;;;5011317;28;20026;-38
2022/04/05 08:42:37;;;;;;;8.07;5.65;;;;;;;;;;5012437;28;20414;-39
2022/04/05 08:45:06;;;;;;;9.05;4.72;;;;;;;;;;5012093;28;20019;-39
2022/04/05 08:47:34;;;;;;;7.28;5.85;;;;;;;;;;5012372;28;20030;-39
2022/04/05 08:50:02;;;;;;;7.93;5.32;;;;;;;;;;5011773;28;20478;-39
2022/04/05 08:52:29;;;;;;;9.02;5.75;;;;;;;;;;5011816;28;20549;-41
2022/04/05 08:54:55;;;;;;;5.75;4.45;;;;;;;;;;5012091;28;20068;-39
2022/04/05 08:57:21;;;;;;;6.03;4.45;;;;;;;;;;5012441;28;20037;-39
2022/04/05 08:59:47;;;;;;;7.82;5.65;;;;;;;;;;5015753;28;20025;-40
2022/04/05 09:02:14;;;;;;;7.57;6.07;;;;;;;;;;5015676;28;20041;-40
2022/04/05 09:04:40;;;;;;;7.40;5.30;;;;;;;;;;5015999;28;20033;-38
2022/04/05 09:07:40;;;;;;;6.10;3.90;;;;;;;;;;5015653;28;20022;-40
2022/04/05 09:10:15;;;;;;;6.85;4.78;;;;;;;;;;4983265;28;20516;-39
2022/04/05 09:12:49;;;;;;;5.78;4.72;;;;;;;;;;5015540;28;20513;-39
2022/04/05 09:15:17;;;;;;;5.55;4.35;;;;;;;;;;4997989;28;20037;-37
2022/04/05 09:17:45;;;;;;;5.15;4.65;;;;;;;;;;5015376;28;20033;-39
2022/04/05 09:20:12;;;;;;;6.78;4.90;;;;;;;;;;5015302;28;20025;-39
2022/04/05 09:22:38;;;;;;;6.97;5.20;;;;;;;;;;5014808;28;20049;-39
2022/04/05 09:25:05;;;;;;;5.93;4.55;;;;;;;;;;5014775;28;20104;-38
2022/04/05 09:27:52;;;;;;;6.43;4.78;;;;;;;;;;5014948;28;20116;-38
2022/04/05 09:30:31;;;;;;;5.95;5.10;;;;;;;;;;5012349;28;20053;-39
2022/04/05 09:32:57;;;;;;;5.93;5.13;;;;;;;;;;5014896;28;20490;-40
2022/04/05 09:35:43;;;;;;;6.85;5.05;;;;;;;;;;5014766;28;20454;-38
2022/04/05 09:38:11;;;;;;;8.00;5.00;;;;;;;;;;5012073;28;20038;-38
2022/04/05 09:40:37;;;;;;;6.22;5.10;;;;;;;;;;5014907;28;20032;-39
2022/04/05 09:43:05;;;;;;;5.13;4.63;;;;;;;;;;5015339;28;20026;-39
2022/04/05 09:45:49;;;;;;;5.28;4.70;;;;;;;;;;5014968;28;20026;-38
2022/04/05 09:48:16;;;;;;;5.32;4.63;;;;;;;;;;5014870;28;20025;-40
2022/04/05 09:51:06;;;;;;;6.32;5.18;;;;;;;;;;5014521;28;20486;-38
2022/04/05 09:53:40;;;;;;;6.45;4.40;;;;;;;;;;5007447;28;20042;-38
2022/04/05 09:56:19;;;;;;;4.65;4.15;;;;;;;;;;5014648;28;20088;-39
2022/04/05 09:59:02;;;;;;;5.88;4.55;;;;;;;;;;5015078;28;20030;-38
2022/04/05 10:01:30;;;;;;;5.63;4.40;;;;;;;;;;5014624;28;20022;-38
2022/04/05 10:04:00;;;;;;;4.57;4.03;;;;;;;;;;5014956;28;20022;-38
2022/04/05 10:06:28;;;;;;;5.20;3.90;;;;;;;;;;5014631;28;20521;-39
2022/04/05 10:08:55;;;;;;;4.97;4.47;;;;;;;;;;5014036;28;20061;-38
2022/04/05 10:11:24;;;;;;;10.40;4.28;;;;;;;;;;5014305;28;20018;-39
2022/04/05 10:13:50;;;;;;;5.32;4.30;;;;;;;;;;5014315;28;20545;-38
2022/04/05 10:16:18;;;;;;;5.20;4.03;;;;;;;;;;5014602;28;20037;-40
2022/04/05 10:18:48;;;;;;;4.38;3.92;;;;;;;;;;5014331;28;20025;-38
2022/04/05 10:21:15;;;;;;;3.72;3.42;;;;;;;;;;5014436;28;20064;-39
2022/04/05 10:23:46;;;;;;;5.18;4.10;;;;;;;;;;5013538;28;20480;-38
2022/04/05 10:26:18;;;;;;;4.40;3.63;;;;;;;;;;5014226;28;20129;-40
2022/04/05 10:28:47;;;;;;;5.53;4.00;;;;;;;;;;5013998;28;20048;-38
2022/04/05 10:31:47;;;;;;;5.45;4.22;;;;;;;;;;5014030;28;20034;-38
2022/04/05 10:34:14;;;;;;;4.80;3.90;;;;;;;;;;5013384;28;20032;-37
2022/04/05 10:36:40;;;;;;;10.90;4.35;;;;;;;;;;5013572;28;20374;-38
2022/04/05 10:39:19;;;;;;;4.35;3.83;;;;;;;;;;5013468;28;20021;-38
2022/04/05 10:42:15;;;;;;;4.15;3.72;;;;;;;;;;5011379;28;20088;-38
2022/04/05 10:44:52;;;;;;;5.47;4.40;;;;;;;;;;5013767;28;20065;-39
2022/04/05 10:47:18;;;;;;;5.78;3.72;;;;;;;;;;5013746;28;20053;-38
2022/04/05 10:49:49;;;;;;;4.20;3.80;;;;;;;;;;5013976;28;20036;-40
2022/04/05 10:52:17;;;;;;;4.40;4.00;;;;;;;;;;5013672;28;20042;-40
2022/04/05 10:54:43;;;;;;;4.88;4.15;;;;;;;;;;5013617;28;20065;-40
2022/04/05 10:57:32;;;;;;;7.28;4.18;;;;;;;;;;5013673;28;20036;-40
2022/04/05 11:00:04;;;;;;;6.10;4.10;;;;;;;;;;5013579;28;20034;-37
2022/04/05 11:02:41;;;;;;;4.30;3.88;;;;;;;;;;5012998;28;20022;-38
2022/04/05 11:05:18;;;;;;;5.18;4.25;;;;;;;;;;5010892;28;20042;-39
2022/04/05 11:08:00;;;;;;;4.70;4.05;;;;;;;;;;4993278;28;20367;-41
2022/04/05 11:10:28;;;;;;;4.13;3.72;;;;;;;;;;5013460;28;20112;-40
2022/04/05 11:13:06;;;;;;;6.70;4.28;;;;;;;;;;5013528;28;20558;-39
2022/04/05 11:15:49;;;;;;;5.00;4.10;;;;;;;;;;5013316;28;20030;-40
2022/04/05 11:18:16;;;;;;;5.88;4.70;;;;;;;;;;5013169;28;20026;-42
2022/04/05 11:20:46;;;;;;;4.50;4.10;;;;;;;;;;5012654;28;20018;-40
2022/04/05 11:23:14;;;;;;;5.00;4.40;;;;;;;;;;5012717;28;20030;-39
2022/04/05 11:25:42;;;;;;;4.68;3.80;;;;;;;;;;5007863;28;20018;-39
2022/04/05 11:28:15;;;;;;;6.00;4.30;;;;;;;;;;5012319;28;20037;-38
2022/04/05 11:30:52;;;;;;;5.28;4.78;;;;;;;;;;5012767;28;20359;-39
2022/04/05 11:33:18;;;;;;;5.72;4.85;;;;;;;;;;5013016;28;20052;-38
2022/04/05 11:35:48;;;;;;;8.13;4.50;;;;;;;;;;5013055;28;20466;-39
2022/04/05 11:38:16;;;;;;;;;;;;;;;;;;5013162;28;20018;-39
2022/04/05 11:40:43;;;;;;;10.00;4.32;;;;;;;;;;5013033;28;19919;-41
2022/04/05 11:43:32;;;;;;;4.75;4.28;;;;;;;;;;5012729;28;20022;-39
2022/04/05 11:46:04;;;;;;;4.57;4.13;;;;;;;;;;5013017;28;20018;-39
2022/04/05 11:48:30;;;;;;;5.22;4.03;;;;;;;;;;5012660;28;20025;-39
2022/04/05 11:50:59;;;;;;;5.60;4.95;;;;;;;;;;5012289;28;20045;-39
2022/04/05 11:53:25;;;;;;;5.63;4.85;;;;;;;;;;5012024;28;20049;-39
2022/04/05 11:56:09;;;;;;;5.53;4.43;;;;;;;;;;5011754;28;20478;-39
2022/04/05 11:58:36;;;;;;;5.45;3.00;;;;;;;;;;5009733;28;20022;-40
2022/04/05 12:01:03;;;;;;;5.00;3.10;;;;;;;;;;5012026;28;20430;-39
2022/04/05 12:03:53;;;;;;;5.18;3.15;;;;;;;;;;5011562;28;20501;-40
2022/04/05 12:06:21;;;;;;;3.95;3.42;;;;;;;;;;5012811;28;20109;-40
2022/04/05 12:08:49;;;;;;;4.55;3.50;;;;;;;;;;5012569;28;20057;-38
2022/04/05 12:11:16;;;;;;;4.57;3.72;;;;;;;;;;5012303;28;20041;-38
2022/04/05 12:13:51;;;;;;;4.07;3.60;;;;;;;;;;5009803;28;20033;-38
2022/04/05 12:16:17;;;;;;;6.53;4.22;;;;;;;;;;5012371;28;20029;-39
2022/04/05 12:18:42;;;;;;;7.60;4.40;;;;;;;;;;5011958;28;20040;-38
2022/04/05 12:21:08;;;;;;;4.47;3.72;;;;;;;;;;5012577;28;20113;-38
2022/04/05 12:23:38;;;;;;;4.38;3.83;;;;;;;;;;5012350;28;20076;-39
2022/04/05 12:26:21;;;;;;;4.15;3.75;;;;;;;;;;5012468;28;20064;-41
2022/04/05 12:28:54;;;;;;;3.92;3.38;;;;;;;;;;5011809;28;20162;-40
2022/04/05 12:31:26;;;;;;;4.32;3.17;;;;;;;;;;5010050;28;20475;-40
2022/04/05 12:34:13;;;;;;;5.45;3.50;;;;;;;;;;5015031;28;20037;-39
2022/04/05 12:36:44;;;;;;;6.93;4.10;;;;;;;;;;5014906;28;20034;-38
2022/04/05 12:39:22;;;;;;;4.55;3.92;;;;;;;;;;5016383;28;20533;-38
2022/04/05 12:41:49;;;;;;;4.47;3.45;;;;;;;;;;5014847;28;20510;-38
2022/04/05 12:44:18;;;;;;;4.85;3.97;;;;;;;;;;5014538;28;20105;-39
2022/04/05 12:46:50;;;;;;;4.40;3.80;;;;;;;;;;5014205;28;20109;-41
2022/04/05 12:49:30;;;;;;;6.45;4.10;;;;;;;;;;5014572;28;20032;-39
2022/04/05 12:52:15;;;;;;;7.53;4.40;;;;;;;;;;5014517;28;20049;-39
2022/04/05 12:54:55;;;;;;;4.72;3.80;;;;;;;;;;5014627;28;20034;-38
2022/04/05 12:57:29;;;;;;;6.30;4.18;;;;;;;;;;5014290;28;20034;-38
2022/04/05 13:00:15;;;;;;;6.47;4.60;;;;;;;;;;5013989;28;20378;-38
2022/04/05 13:02:52;;;;;;;7.18;4.75;;;;;;;;;;5001066;28;20490;-38
2022/04/05 13:08:14;;;;;;;5.07;4.40;;;;;;;;;;5014426;28;20521;-38
2022/04/05 13:10:46;;;;;;;5.00;4.20;;;;;;;;;;5014074;28;20501;-40
2022/04/05 13:13:35;;;;;;;5.90;4.43;;;;;;;;;;5014404;28;20026;-38
2022/04/05 13:16:03;;;;;;;7.07;4.90;;;;;;;;;;5013947;28;20030;-37
2022/04/05 13:18:38;;;;;;;6.97;5.47;;;;;;;;;;5013919;28;20041;-38
2022/04/05 13:21:08;;;;;;;9.77;5.05;;;;;;;;;;5013810;28;20043;-42
2022/04/05 13:23:37;;;;;;;7.85;4.75;;;;;;;;;;5013916;28;20080;-42
2022/04/05 13:26:05;;;;;;;6.15;4.70;;;;;;;;;;5013941;28;20101;-38
2022/04/05 13:28:32;;;;;;;6.63;4.82;;;;;;;;;;5013819;28;20033;-38
2022/04/05 13:31:06;;;;;;;9.02;5.05;;;;;;;;;;5013640;28;20068;-44
2022/04/05 13:33:32;;;;;;;5.88;4.22;;;;;;;;;;5013707;28;20061;-40
2022/04/05 13:35:57;;;;;;;6.28;4.35;;;;;;;;;;5013670;28;20068;-38
2022/04/05 13:38:23;;;;;;;5.13;4.00;;;;;;;;;;5013438;28;20018;-38
2022/04/05 13:40:48;;;;;;;5.18;3.97;;;;;;;;;;5013719;28;20033;-40
2022/04/05 13:43:14;;;;;;;5.97;4.70;;;;;;;;;;5013789;28;20030;-38
2022/04/05 13:45:41;;;;;;;6.20;4.28;;;;;;;;;;5012141;28;20552;-38
2022/04/05 13:48:07;;;;;;;6.03;4.72;;;;;;;;;;5013419;28;20029;-41
2022/04/05 13:50:33;;;;;;;7.30;4.72;;;;;;;;;;5013363;28;20478;-40
2022/04/05 13:52:58;;;;;;;9.20;4.78;;;;;;;;;;5013004;28;20050;-42
2022/04/05 13:55:24;;;;;;;5.03;4.00;;;;;;;;;;5013577;28;20034;-38
2022/04/05 13:57:49;;;;;;;8.48;5.25;;;;;;;;;;5012942;28;20528;-38
2022/04/05 14:00:15;;;;;;;6.43;4.38;;;;;;;;;;5013177;28;20034;-39
2022/04/05 14:02:41;;;;;;;4.75;4.20;;;;;;;;;;5013399;28;20077;-39
2022/04/05 14:05:07;;;;;;;5.07;4.35;;;;;;;;;;5013357;28;20029;-38
2022/04/05 14:07:34;;;;;;;6.30;4.45;;;;;;;;;;5013224;28;20030;-39
2022/04/05 14:09:59;;;;;;;7.75;4.25;;;;;;;;;;5013009;28;20064;-39
2022/04/05 14:12:25;;;;;;;4.40;4.00;;;;;;;;;;5013028;28;20030;-40
2022/04/05 14:14:51;;;;;;;6.13;4.82;;;;;;;;;;5012775;28;20061;-37
2022/04/05 14:17:17;;;;;;;5.72;4.25;;;;;;;;;;5012848;28;20029;-40
2022/04/05 14:19:42;;;;;;;4.25;3.85;;;;;;;;;;5012714;28;20030;-39
2022/04/05 14:22:08;;;;;;;5.13;4.57;;;;;;;;;;5012662;28;20060;-39
2022/04/05 14:24:33;;;;;;;6.00;4.68;;;;;;;;;;5012747;28;20052;-39
2022/04/05 14:26:59;;;;;;;5.55;3.80;;;;;;;;;;5012519;28;20772;-38
2022/04/05 14:29:24;;;;;;;5.90;4.60;;;;;;;;;;5012809;28;20406;-39
2022/04/05 14:31:50;;;;;;;5.60;4.20;;;;;;;;;;5012601;28;20030;-38
2022/04/05 14:34:15;;;;;;;4.60;4.18;;;;;;;;;;5012584;28;20034;-39
2022/04/05 14:36:42;;;;;;;4.93;4.28;;;;;;;;;;5012365;28;20038;-38
2022/04/05 14:39:09;;;;;;;4.68;4.20;;;;;;;;;;5012743;28;20037;-38
2022/04/05 14:41:37;;;;;;;8.43;3.95;;;;;;;;;;5012240;28;20033;-38
2022/04/05 14:44:03;;;;;;;6.05;4.63;;;;;;;;;;4993984;28;20036;-40
2022/04/05 14:46:31;;;;;;;4.63;4.15;;;;;;;;;;5012338;28;20386;-39